Abbotsford, Wisconsin
Current Conditions -  °F | °C
As of 2:35 AM on Tuesday 21 Oct 2014 (Local Time) from KMDZ Reporting Station
Overcast Overcast  
Wind Chill:   Ceiling: 3000
Heat Index:   Visibility: 10mi
Dew Point:   Wind: 13mph
Humidity: 85%   Direction: 20°NNE
Pressure: 30.11"   Gusts: NA
Location:  44.95°N, 90.32°W
Report Text: KMDZ 210735Z AUTO 02011KT 10SM SCT015 OVC030 05/03 A3011 RMK AO2 T00480025
Loading
Personal Weather Stations






























Interactive Weather Map
Tropical Storm Tracking
New forecast layout! Learn more

10-Day Weather Forecast

Advertisements
Track Severe Weather on mobile